createdAt,value
2022-10-29T00:04:19.468Z,55.05
2022-10-29T00:14:20.970Z,55.37
2022-10-29T00:24:22.505Z,55.12
2022-10-29T00:34:23.893Z,55.14
2022-10-29T00:44:30.061Z,55.40
2022-10-29T00:54:32.450Z,55.47
2022-10-29T01:04:34.085Z,55.13
2022-10-29T01:15:00.978Z,55.30
2022-10-29T01:25:21.129Z,55.23
2022-10-29T01:35:34.337Z,55.08
2022-10-29T01:45:38.917Z,55.35
2022-10-29T01:55:40.411Z,55.45
2022-10-29T02:05:51.390Z,55.35
2022-10-29T02:15:53.049Z,55.70
2022-10-29T02:25:54.582Z,55.74
2022-10-29T02:35:56.076Z,55.78
2022-10-29T02:46:11.001Z,56.02
2022-10-29T02:56:12.930Z,55.79
2022-10-29T03:06:18.298Z,55.89
2022-10-29T03:16:19.680Z,56.05
2022-10-29T03:26:21.099Z,55.92
2022-10-29T03:36:22.558Z,56.02
2022-10-29T03:46:23.986Z,56.21
2022-10-29T03:56:25.369Z,56.67
2022-10-29T04:06:26.868Z,56.48
2022-10-29T04:16:28.239Z,56.55
2022-10-29T04:36:52.273Z,56.62
2022-10-29T04:46:53.654Z,56.51
2022-10-29T04:56:55.086Z,56.29
2022-10-29T05:06:56.583Z,56.34
2022-10-29T05:16:58.111Z,56.46
2022-10-29T05:26:59.611Z,56.42
2022-10-29T05:37:00.995Z,56.36
2022-10-29T05:47:02.451Z,56.32
2022-10-29T05:57:03.857Z,56.49
2022-10-29T06:07:05.378Z,56.48
2022-10-29T06:17:06.772Z,56.24
2022-10-29T06:27:08.260Z,56.57
2022-10-29T06:37:09.733Z,56.58
2022-10-29T06:47:11.164Z,56.48
2022-10-29T06:57:12.536Z,56.17
2022-10-29T07:07:14.136Z,55.85
2022-10-29T07:17:15.556Z,55.36
2022-10-29T07:27:17.080Z,55.13
2022-10-29T07:37:18.476Z,54.39
2022-10-29T07:47:19.864Z,54.27
2022-10-29T07:57:22.306Z,53.89
2022-10-29T08:07:23.706Z,53.30
2022-10-29T08:17:25.091Z,53.24
2022-10-29T08:27:26.547Z,53.14
2022-10-29T08:37:27.958Z,53.21
2022-10-29T08:47:29.324Z,53.28
2022-10-29T08:57:32.024Z,52.32
2022-10-29T09:08:05.570Z,50.67
2022-10-29T09:18:27.935Z,49.73
2022-10-29T09:28:32.684Z,49.82
2022-10-29T09:38:35.765Z,50.29
2022-10-29T09:48:47.215Z,49.58
2022-10-29T09:58:52.408Z,49.27
2022-10-29T10:08:59.385Z,49.37
2022-10-29T10:19:00.826Z,49.20
2022-10-29T10:29:21.116Z,49.32
2022-10-29T10:39:36.535Z,49.07
2022-10-29T10:49:38.022Z,49.51
2022-10-29T10:59:45.274Z,49.36
2022-10-29T11:09:48.069Z,49.95
2022-10-29T11:19:49.649Z,50.49
2022-10-29T11:29:56.175Z,50.24
2022-10-29T11:40:00.005Z,50.08
2022-10-29T11:50:05.554Z,49.87
2022-10-29T12:00:13.907Z,49.61
2022-10-29T12:10:27.615Z,49.78
2022-10-29T12:20:50.855Z,49.71
2022-10-29T12:30:58.182Z,50.23
2022-10-29T12:41:05.487Z,49.65
2022-10-29T12:51:12.913Z,49.26
2022-10-29T13:01:38.236Z,49.01
2022-10-29T13:11:53.010Z,49.28
2022-10-29T13:22:24.711Z,49.54
2022-10-29T13:32:33.563Z,49.54
2022-10-29T13:42:34.936Z,50.16
2022-10-29T13:52:37.258Z,50.59
2022-10-29T14:02:53.326Z,50.55
2022-10-29T14:12:57.309Z,50.30
2022-10-29T14:23:01.288Z,50.79
2022-10-29T14:33:02.744Z,50.41
2022-10-29T14:43:05.163Z,50.38
2022-10-29T14:53:07.728Z,50.63
2022-10-29T15:03:14.967Z,50.23
2022-10-29T15:13:29.177Z,50.42
2022-10-29T15:23:41.180Z,50.03
2022-10-29T15:33:42.740Z,49.97
2022-10-29T15:44:02.255Z,50.09
2022-10-29T15:54:04.200Z,50.46
2022-10-29T16:04:05.601Z,50.69
2022-10-29T16:14:08.960Z,50.42
2022-10-29T16:24:14.224Z,50.70
2022-10-29T16:34:18.239Z,50.44
2022-10-29T16:44:22.153Z,50.32
2022-10-29T16:54:23.715Z,50.23
2022-10-29T17:04:25.131Z,50.08
2022-10-29T17:14:26.599Z,50.07
2022-10-29T17:24:28.041Z,50.14
2022-10-29T17:34:29.407Z,50.18
2022-10-29T17:44:31.952Z,50.07
2022-10-29T17:54:35.177Z,50.09
2022-10-29T18:04:36.893Z,49.64
2022-10-29T18:14:38.279Z,49.79
2022-10-29T18:24:39.669Z,49.95
2022-10-29T18:34:41.060Z,49.61
2022-10-29T18:44:42.432Z,49.54
2022-10-29T18:54:43.905Z,49.80
2022-10-29T19:04:45.383Z,49.71
2022-10-29T19:14:46.768Z,49.57
2022-10-29T19:24:48.246Z,49.00
2022-10-29T19:34:49.674Z,49.13
2022-10-29T19:44:55.307Z,48.88
2022-10-29T19:54:57.862Z,48.27
2022-10-29T20:04:59.271Z,48.48
2022-10-29T20:15:01.798Z,48.35
2022-10-29T20:25:03.394Z,48.41
2022-10-29T20:35:05.126Z,48.46
2022-10-29T20:45:06.948Z,48.49
2022-10-29T20:55:08.748Z,48.54
2022-10-29T21:05:10.130Z,48.41
2022-10-29T21:15:11.518Z,48.18
2022-10-29T21:25:13.084Z,48.64
2022-10-29T21:35:14.493Z,48.57
2022-10-29T21:45:15.885Z,48.44
2022-10-29T21:55:17.295Z,48.37
2022-10-29T22:05:18.680Z,48.73
2022-10-29T22:15:20.117Z,48.44
2022-10-29T22:25:21.500Z,48.76
2022-10-29T22:35:22.978Z,48.75
2022-10-29T22:45:24.435Z,48.54
2022-10-29T22:55:25.949Z,48.41
2022-10-29T23:05:27.383Z,48.51
2022-10-29T23:15:28.786Z,48.81
2022-10-29T23:25:30.150Z,48.52
2022-10-29T23:35:34.463Z,48.79
2022-10-29T23:45:35.939Z,48.85
2022-10-29T23:55:37.345Z,48.92
